Time;durP1;ratioP1;P1;durP2;ratioP2;P2;SDS_P1;SDS_P2;PMS_P1;PMS_P2;Temp;Humidity;BMP_temperature;BMP_pressure;BME280_temperature;BME280_humidity;BME280_pressure;Samples;Min_cycle;Max_cycle;Signal;HPM_P1;HPM_P2
2023/12/09 00:01:57;;;;;;;80.07;4.80;;;;;3.80;93733.00;;;;7400497;19;20214;-75
2023/12/09 00:04:31;;;;;;;10.03;2.20;;;;;4.00;93731.00;;;;7402550;19;20206;-75
2023/12/09 00:06:59;;;;;;;3.83;1.97;;;;;4.20;93738.00;;;;7401773;19;20133;-75
2023/12/09 00:09:33;;;;;;;7.27;2.53;;;;;4.20;93727.00;;;;7399667;19;20140;-77
2023/12/09 00:12:01;;;;;;;6.07;1.97;;;;;4.10;93731.00;;;;7402159;19;20129;-77
2023/12/09 00:14:40;;;;;;;13.27;2.43;;;;;4.20;93745.00;;;;7400028;19;20125;-78
2023/12/09 00:17:13;;;;;;;6.67;1.87;;;;;4.10;93745.00;;;;7400004;19;20543;-76
2023/12/09 00:19:41;;;;;;;4.03;2.20;;;;;4.20;93744.00;;;;7399756;19;20141;-77
2023/12/09 00:22:15;;;;;;;4.43;2.37;;;;;4.20;93742.00;;;;7399924;19;20247;-77
2023/12/09 00:24:49;;;;;;;5.43;2.03;;;;;4.00;93746.00;;;;7400046;19;20458;-76
2023/12/09 00:27:23;;;;;;;6.13;2.10;;;;;3.70;93728.00;;;;7390081;19;20162;-77
2023/12/09 00:29:59;;;;;;;6.10;1.90;;;;;3.90;93740.00;;;;7399160;19;20216;-78
2023/12/09 00:32:37;;;;;;;5.27;2.20;;;;;3.90;93731.00;;;;7398135;19;20149;-76
2023/12/09 00:35:05;;;;;;;3.13;2.03;;;;;3.90;93733.00;;;;7398713;19;20534;-79
2023/12/09 00:37:33;;;;;;;7.00;2.00;;;;;3.80;93738.00;;;;7396973;19;20173;-77
2023/12/09 00:40:07;;;;;;;6.57;2.13;;;;;3.80;93747.00;;;;7399130;19;20612;-78
2023/12/09 00:42:41;;;;;;;8.37;1.83;;;;;3.80;93744.00;;;;7399044;19;20669;-77
2023/12/09 00:45:09;;;;;;;5.00;2.03;;;;;3.70;93741.00;;;;7398853;19;20139;-78
2023/12/09 00:47:36;;;;;;;5.13;1.80;;;;;3.70;93750.00;;;;7399368;19;20120;-77
2023/12/09 00:50:11;;;;;;;7.23;2.03;;;;;3.60;93749.00;;;;7399099;19;20132;-78
2023/12/09 00:52:39;;;;;;;6.67;2.20;;;;;3.70;93751.00;;;;7399425;19;20132;-79
2023/12/09 00:55:13;;;;;;;6.00;2.10;;;;;3.70;93745.00;;;;7398491;19;20139;-77
2023/12/09 00:57:40;;;;;;;9.47;2.70;;;;;3.70;93750.00;;;;7399383;19;20153;-76
2023/12/09 01:00:15;;;;;;;8.00;2.53;;;;;3.70;93756.00;;;;7399243;19;20485;-77
2023/12/09 01:02:43;;;;;;;6.20;2.60;;;;;3.70;93756.00;;;;7401150;19;20150;-77
2023/12/09 01:05:17;;;;;;;5.00;2.00;;;;;3.60;93755.00;;;;7398482;19;20204;-77
2023/12/09 01:07:51;;;;;;;6.97;1.97;;;;;3.40;93763.00;;;;7399628;19;20133;-78
2023/12/09 01:10:25;;;;;;;6.50;2.20;;;;;3.40;93752.00;;;;7398543;19;20145;-77
2023/12/09 01:12:59;;;;;;;6.47;2.40;;;;;3.40;93757.00;;;;7397647;19;20503;-78
2023/12/09 01:15:33;;;;;;;8.43;1.90;;;;;3.30;93764.00;;;;7398481;19;20143;-77
2023/12/09 01:18:07;;;;;;;4.73;2.23;;;;;3.40;93766.00;;;;7398459;19;20184;-77
2023/12/09 01:20:41;;;;;;;8.10;2.30;;;;;3.40;93772.00;;;;7399109;19;20494;-77
2023/12/09 01:23:15;;;;;;;6.10;2.17;;;;;3.40;93768.00;;;;7397363;19;20181;-76
2023/12/09 01:25:49;;;;;;;5.00;2.23;;;;;3.40;93774.00;;;;7399250;19;20601;-76
2023/12/09 01:28:17;;;;;;;6.03;2.20;;;;;3.40;93775.00;;;;7397499;19;20129;-77
2023/12/09 01:30:59;;;;;;;5.80;1.70;;;;;3.30;93781.00;;;;7397572;19;20211;-75
2023/12/09 01:33:34;;;;;;;5.77;1.70;;;;;3.40;93770.00;;;;7398829;19;20141;-76
2023/12/09 01:36:08;;;;;;;6.47;1.67;;;;;3.40;93780.00;;;;7395808;19;20544;-75
2023/12/09 01:38:43;;;;;;;4.37;1.80;;;;;3.50;93791.00;;;;7398110;19;20128;-74
2023/12/09 01:41:10;;;;;;;10.10;2.17;;;;;3.70;93788.00;;;;7398467;19;20149;-74
2023/12/09 01:43:38;;;;;;;3.17;1.63;;;;;3.70;93795.00;;;;7400012;19;20145;-74
2023/12/09 01:46:17;;;;;;;9.40;1.73;;;;;3.90;93800.00;;;;7406370;19;20488;-75
2023/12/09 01:48:51;;;;;;;4.60;1.80;;;;;4.00;93796.00;;;;7404907;19;20132;-74
2023/12/09 01:51:27;;;;;;;6.10;1.90;;;;;4.00;93799.00;;;;7405955;19;20138;-76
2023/12/09 01:54:01;;;;;;;13.03;1.80;;;;;4.00;93797.00;;;;7406579;19;20218;-75
2023/12/09 01:56:38;;;;;;;11.13;1.47;;;;;3.80;93807.00;;;;7404634;19;20477;-75
2023/12/09 01:59:09;;;;;;;7.87;1.80;;;;;3.70;93804.00;;;;7406736;19;20494;-76
2023/12/09 02:01:44;;;;;;;8.63;1.90;;;;;3.60;93803.00;;;;7405388;19;20586;-75
2023/12/09 02:04:13;;;;;;;9.13;1.43;;;;;3.60;93795.00;;;;7405906;19;20152;-74
2023/12/09 02:06:43;;;;;;;5.50;1.90;;;;;3.70;93800.00;;;;7404424;19;20144;-75
2023/12/09 02:09:18;;;;;;;10.23;2.17;;;;;3.60;93792.00;;;;7405247;19;20137;-75
2023/12/09 02:12:10;;;;;;;11.30;2.07;;;;;3.50;93790.00;;;;7404544;19;20136;-75
2023/12/09 02:15:11;;;;;;;3.70;1.80;;;;;3.50;93794.00;;;;7403949;19;20161;-74
2023/12/09 02:17:43;;;;;;;8.00;1.60;;;;;3.40;93798.00;;;;7398396;19;20146;-74
2023/12/09 02:20:17;;;;;;;9.80;1.70;;;;;3.50;93795.00;;;;7404967;19;20165;-74
2023/12/09 02:23:13;;;;;;;4.40;1.60;;;;;3.50;93786.00;;;;7403271;19;20159;-74
2023/12/09 02:25:52;;;;;;;10.50;1.90;;;;;3.50;93781.00;;;;7403641;19;20494;-74
2023/12/09 02:28:41;;;;;;;7.77;2.30;;;;;3.30;93788.00;;;;7399586;19;20566;-75
2023/12/09 02:31:23;;;;;;;8.03;2.27;;;;;3.10;93777.00;;;;7405143;19;20195;-74
2023/12/09 02:34:01;;;;;;;2.50;1.57;;;;;2.80;93771.00;;;;7404482;19;20144;-74
2023/12/09 02:36:31;;;;;;;10.00;2.63;;;;;2.60;93778.00;;;;7405282;19;20137;-75
2023/12/09 02:39:07;;;;;;;7.70;2.30;;;;;2.60;93770.00;;;;7404598;19;20137;-76
2023/12/09 02:41:35;;;;;;;10.20;1.90;;;;;2.60;93766.00;;;;7403806;19;20466;-75
2023/12/09 02:44:09;;;;;;;8.37;2.00;;;;;2.60;93761.00;;;;7403823;19;20152;-75
2023/12/09 02:46:43;;;;;;;11.70;2.20;;;;;2.60;93758.00;;;;7403522;19;20133;-76
2023/12/09 02:49:25;;;;;;;9.33;1.97;;;;;2.60;93750.00;;;;7404388;19;20143;-75
2023/12/09 02:52:00;;;;;;;10.67;1.97;;;;;2.40;93747.00;;;;7403115;19;20510;-76
2023/12/09 02:54:34;;;;;;;11.37;1.70;;;;;2.30;93750.00;;;;7404154;19;20133;-76
2023/12/09 02:57:01;;;;;;;10.17;1.80;;;;;2.30;93750.00;;;;7400712;19;20604;-75
2023/12/09 02:59:36;;;;;;;19.63;2.47;;;;;2.40;93732.00;;;;7403604;19;20144;-77
2023/12/09 03:02:09;;;;;;;14.37;2.20;;;;;2.40;93728.00;;;;7396998;19;20633;-76
2023/12/09 03:04:44;;;;;;;10.30;1.83;;;;;2.40;93730.00;;;;7403190;19;20132;-74
2023/12/09 03:07:11;;;;;;;13.77;2.27;;;;;2.20;93733.00;;;;7402333;19;20129;-75
2023/12/09 03:09:42;;;;;;;7.10;1.90;;;;;2.10;93734.00;;;;7401229;19;20139;-78
2023/12/09 03:12:16;;;;;;;10.77;2.30;;;;;2.10;93721.00;;;;7402581;19;20246;-75
2023/12/09 03:14:44;;;;;;;12.13;2.13;;;;;1.80;93720.00;;;;7400771;19;20154;-77
2023/12/09 03:17:14;;;;;;;14.33;2.17;;;;;1.80;93717.00;;;;7400195;19;20564;-76
2023/12/09 03:19:50;;;;;;;7.30;2.20;;;;;1.70;93731.00;;;;7402372;19;20489;-75
2023/12/09 03:22:20;;;;;;;13.47;2.27;;;;;1.90;93732.00;;;;7401570;19;20137;-75
2023/12/09 03:24:54;;;;;;;10.80;2.60;;;;;2.00;93721.00;;;;7400509;19;20763;-75
2023/12/09 03:27:21;;;;;;;15.47;2.30;;;;;2.00;93715.00;;;;7401174;19;20504;-74
2023/12/09 03:30:02;;;;;;;20.33;2.20;;;;;2.00;93705.00;;;;7399645;19;20622;-77
2023/12/09 03:32:39;;;;;;;47.83;4.47;;;;;2.00;93712.00;;;;7400983;19;20179;-77
2023/12/09 03:35:15;;;;;;;11.33;2.50;;;;;2.10;93694.00;;;;7400831;19;20152;-75
2023/12/09 03:37:43;;;;;;;12.33;3.70;;;;;2.30;93696.00;;;;7400033;19;20173;-75
2023/12/09 03:40:17;;;;;;;13.17;2.97;;;;;2.60;93695.00;;;;7400598;19;20574;-75
2023/12/09 03:42:51;;;;;;;7.90;2.70;;;;;2.70;93716.00;;;;7402285;19;20140;-77
2023/12/09 03:45:25;;;;;;;12.60;2.57;;;;;2.60;93712.00;;;;7401067;19;20136;-79
2023/12/09 03:47:52;;;;;;;8.17;2.90;;;;;2.50;93722.00;;;;7401047;19;20640;-79
2023/12/09 03:50:27;;;;;;;9.70;2.60;;;;;2.50;93724.00;;;;7400550;19;20145;-78
2023/12/09 03:52:54;;;;;;;7.47;2.13;;;;;2.40;93722.00;;;;7399565;19;20137;-78
2023/12/09 03:55:29;;;;;;;8.37;2.00;;;;;2.30;93726.00;;;;7401811;19;20129;-79
2023/12/09 03:57:56;;;;;;;10.73;2.23;;;;;2.20;93714.00;;;;7400715;19;20143;-78
2023/12/09 04:00:31;;;;;;;13.60;2.40;;;;;2.30;93727.00;;;;7400406;19;20555;-77
2023/12/09 04:03:05;;;;;;;16.97;2.97;;;;;2.40;93704.00;;;;7399716;19;20156;-79
2023/12/09 04:05:41;;;;;;;7.07;1.83;;;;;2.40;93720.00;;;;7401334;19;20195;-78
2023/12/09 04:08:09;;;;;;;16.83;3.00;;;;;2.60;93707.00;;;;7399122;19;20466;-78
2023/12/09 04:10:43;;;;;;;14.17;2.13;;;;;2.70;93713.00;;;;7400952;19;20601;-77
2023/12/09 04:13:11;;;;;;;14.23;3.00;;;;;2.90;93715.00;;;;7398649;19;20647;-80
2023/12/09 04:15:47;;;;;;;13.50;2.30;;;;;2.70;93710.00;;;;7398880;19;20132;-77
2023/12/09 04:18:21;;;;;;;15.47;2.70;;;;;2.80;93708.00;;;;7397741;19;20147;-78
2023/12/09 04:20:55;;;;;;;11.10;2.53;;;;;2.80;93712.00;;;;7399899;19;20212;-79
2023/12/09 04:23:29;;;;;;;12.43;2.70;;;;;2.70;93723.00;;;;7398483;19;20181;-79
2023/12/09 04:26:01;;;;;;;14.37;2.87;;;;;2.70;93720.00;;;;7399137;19;20480;-77
2023/12/09 04:28:37;;;;;;;9.90;2.93;;;;;2.70;93722.00;;;;7398357;19;20153;-77
2023/12/09 04:31:19;;;;;;;18.13;3.07;;;;;2.70;93713.00;;;;7399476;19;20140;-77
2023/12/09 04:33:54;;;;;;;13.20;2.90;;;;;2.60;93722.00;;;;7400952;19;20479;-80
2023/12/09 04:36:28;;;;;;;8.93;2.50;;;;;2.50;93724.00;;;;7399368;19;20168;-78
2023/12/09 04:39:05;;;;;;;14.80;2.97;;;;;2.50;93719.00;;;;7396793;19;20133;-79
2023/12/09 04:41:37;;;;;;;14.57;3.00;;;;;2.50;93722.00;;;;7398264;19;20148;-78
2023/12/09 04:44:11;;;;;;;7.57;2.60;;;;;2.50;93733.00;;;;7400337;19;20128;-79
2023/12/09 04:46:45;;;;;;;17.00;3.20;;;;;2.60;93714.00;;;;7399093;19;20605;-77
2023/12/09 04:49:21;;;;;;;18.50;3.40;;;;;2.60;93727.00;;;;7399701;19;20600;-77
2023/12/09 04:51:49;;;;;;;11.57;3.20;;;;;2.70;93726.00;;;;7398189;19;20361;-78
2023/12/09 04:54:23;;;;;;;12.13;4.13;;;;;2.70;93727.00;;;;7398377;19;20220;-78
2023/12/09 04:56:57;;;;;;;13.67;4.23;;;;;2.80;93723.00;;;;7400016;19;20601;-79
2023/12/09 04:59:25;;;;;;;13.33;4.07;;;;;2.90;93733.00;;;;7399644;19;20132;-77
2023/12/09 05:01:59;;;;;;;11.57;3.57;;;;;2.70;93721.00;;;;7397316;19;20490;-77
2023/12/09 05:04:27;;;;;;;16.33;4.07;;;;;2.70;93718.00;;;;7398288;19;20147;-80
2023/12/09 05:07:01;;;;;;;11.73;3.90;;;;;2.60;93709.00;;;;7399675;19;20157;-77
2023/12/09 05:09:35;;;;;;;19.57;4.37;;;;;2.70;93715.00;;;;7397773;19;20161;-79
2023/12/09 05:12:09;;;;;;;13.57;4.20;;;;;2.70;93707.00;;;;7397262;19;20151;-77
2023/12/09 05:14:37;;;;;;;14.97;5.67;;;;;2.60;93701.00;;;;7398231;19;20140;-79
2023/12/09 05:17:07;;;;;;;16.60;5.63;;;;;2.80;93714.00;;;;7397781;19;20496;-80
2023/12/09 05:19:41;;;;;;;16.53;4.57;;;;;2.70;93701.00;;;;7399332;19;20133;-80
2023/12/09 05:22:11;;;;;;;19.47;5.80;;;;;2.60;93701.00;;;;7396303;19;20169;-78
2023/12/09 05:24:46;;;;;;;11.53;5.20;;;;;2.60;93697.00;;;;7398944;19;20136;-78
2023/12/09 05:27:16;;;;;;;16.80;5.80;;;;;2.50;93696.00;;;;7397219;19;20161;-78
2023/12/09 05:30:02;;;;;;;15.47;5.47;;;;;2.60;93685.00;;;;7396071;19;20697;-78
2023/12/09 05:32:36;;;;;;;16.57;6.00;;;;;2.60;93694.00;;;;7397881;19;20140;-77
2023/12/09 05:35:10;;;;;;;14.67;5.17;;;;;2.50;93686.00;;;;7396919;19;20595;-77
2023/12/09 05:37:38;;;;;;;16.67;5.53;;;;;2.50;93687.00;;;;7396942;19;20161;-77
2023/12/09 05:40:12;;;;;;;10.00;5.27;;;;;2.60;93692.00;;;;7395028;19;20139;-76
2023/12/09 05:42:46;;;;;;;7.80;4.47;;;;;2.50;93680.00;;;;7390699;19;20157;-76
2023/12/09 05:45:23;;;;;;;11.63;4.83;;;;;2.40;93680.00;;;;7385146;19;20618;-74
2023/12/09 05:48:03;;;;;;;19.20;5.50;;;;;2.20;93674.00;;;;7385156;19;20159;-77
2023/12/09 05:50:39;;;;;;;15.77;4.90;;;;;2.10;93669.00;;;;7385055;19;20200;-74
2023/12/09 05:53:07;;;;;;;7.33;4.40;;;;;2.00;93664.00;;;;7384705;19;20149;-75
2023/12/09 05:55:35;;;;;;;21.10;5.73;;;;;1.90;93673.00;;;;7383741;19;20173;-74
2023/12/09 05:58:10;;;;;;;13.07;4.90;;;;;1.80;93672.00;;;;7384883;19;20136;-75
2023/12/09 06:00:37;;;;;;;14.23;4.83;;;;;2.10;93666.00;;;;7383106;19;20634;-75
2023/12/09 06:03:05;;;;;;;17.97;4.93;;;;;2.00;93677.00;;;;7383243;19;20121;-76
2023/12/09 06:05:41;;;;;;;11.23;5.50;;;;;2.00;93675.00;;;;7384858;19;20166;-76
2023/12/09 06:08:09;;;;;;;15.40;4.57;;;;;2.00;93666.00;;;;7384236;19;20133;-77
2023/12/09 06:10:44;;;;;;;13.50;4.23;;;;;2.00;93672.00;;;;7385670;19;20189;-77
2023/12/09 06:13:11;;;;;;;12.70;5.07;;;;;2.00;93678.00;;;;7384385;19;20176;-77
2023/12/09 06:15:48;;;;;;;9.43;4.83;;;;;2.20;93676.00;;;;7384027;19;20148;-75
2023/12/09 06:18:23;;;;;;;23.20;5.40;;;;;2.20;93660.00;;;;7383699;19;20124;-75
2023/12/09 06:20:59;;;;;;;12.67;5.03;;;;;2.40;93669.00;;;;7381577;19;20144;-75
2023/12/09 06:23:27;;;;;;;15.53;6.13;;;;;2.40;93654.00;;;;7381278;19;20133;-76
2023/12/09 06:25:57;;;;;;;16.17;6.70;;;;;2.30;93655.00;;;;7379531;19;20149;-76
2023/12/09 06:28:37;;;;;;;18.50;6.90;;;;;2.40;93654.00;;;;7378633;19;20172;-75
2023/12/09 06:31:11;;;;;;;15.13;7.40;;;;;2.40;93653.00;;;;7381189;19;20145;-77
2023/12/09 06:33:46;;;;;;;18.97;8.07;;;;;2.50;93655.00;;;;7387010;19;20132;-75
2023/12/09 06:36:13;;;;;;;20.90;6.73;;;;;2.40;93631.00;;;;7386884;19;20172;-76
2023/12/09 06:38:42;;;;;;;20.90;8.33;;;;;2.20;93632.00;;;;7387613;19;20152;-75
2023/12/09 06:41:17;;;;;;;23.60;8.10;;;;;2.30;93634.00;;;;7390208;19;20140;-77
2023/12/09 06:43:50;;;;;;;18.57;7.83;;;;;2.40;93642.00;;;;7389610;19;20192;-78
2023/12/09 06:46:25;;;;;;;21.73;7.60;;;;;2.40;93642.00;;;;7389182;19;20148;-79
2023/12/09 06:48:53;;;;;;;25.67;8.40;;;;;2.40;93643.00;;;;7388451;19;20152;-76
2023/12/09 06:51:32;;;;;;;21.07;8.07;;;;;2.50;93650.00;;;;7389552;19;20132;-75
2023/12/09 06:54:07;;;;;;;26.73;7.97;;;;;2.40;93645.00;;;;7388570;19;20132;-76
2023/12/09 06:56:42;;;;;;;21.60;8.50;;;;;2.30;93647.00;;;;7388092;19;20145;-76
2023/12/09 06:59:18;;;;;;;29.13;8.00;;;;;2.30;93630.00;;;;7385445;19;20145;-76
2023/12/09 07:01:55;;;;;;;21.87;8.07;;;;;2.30;93633.00;;;;7385992;19;20187;-76
2023/12/09 07:04:32;;;;;;;26.37;9.23;;;;;2.40;93646.00;;;;7387582;19;20621;-76
2023/12/09 07:07:01;;;;;;;16.87;8.60;;;;;2.40;93636.00;;;;7387994;19;20476;-76
2023/12/09 07:09:47;;;;;;;21.50;9.17;;;;;2.50;93635.00;;;;7389368;19;20167;-75
2023/12/09 07:12:15;;;;;;;24.83;8.80;;;;;2.60;93647.00;;;;7387330;19;20145;-77
2023/12/09 07:14:52;;;;;;;24.30;9.30;;;;;2.50;93647.00;;;;7386630;19;20165;-77
2023/12/09 07:17:19;;;;;;;22.60;8.63;;;;;2.50;93651.00;;;;7386956;19;20475;-77
2023/12/09 07:19:59;;;;;;;30.27;10.13;;;;;2.70;93655.00;;;;7388152;19;20167;-76
2023/12/09 07:22:27;;;;;;;56.80;11.53;;;;;2.70;93652.00;;;;7385077;19;20140;-77
2023/12/09 07:24:55;;;;;;;104.17;16.53;;;;;2.60;93639.00;;;;7385513;19;20256;-77
2023/12/09 07:27:29;;;;;;;148.70;17.47;;;;;2.70;93637.00;;;;7387353;19;20137;-76
2023/12/09 07:30:11;;;;;;;35.80;11.03;;;;;2.70;93639.00;;;;7386753;19;20168;-76
2023/12/09 07:32:45;;;;;;;27.77;11.20;;;;;2.70;93639.00;;;;7383300;19;20520;-77
2023/12/09 07:35:24;;;;;;;26.57;11.07;;;;;2.80;93640.00;;;;7387631;19;20140;-76
2023/12/09 07:37:52;;;;;;;24.93;10.47;;;;;2.80;93645.00;;;;7388640;19;20128;-75
2023/12/09 07:40:27;;;;;;;18.60;9.47;;;;;2.70;93642.00;;;;7389197;19;20152;-75
2023/12/09 07:43:03;;;;;;;22.60;9.97;;;;;2.70;93646.00;;;;7385890;19;20534;-74
2023/12/09 07:45:37;;;;;;;18.87;8.63;;;;;2.80;93653.00;;;;7387334;19;21409;-75
2023/12/09 07:48:11;;;;;;;19.33;8.00;;;;;2.80;93641.00;;;;7389012;19;20144;-75
2023/12/09 07:50:53;;;;;;;19.83;7.63;;;;;2.90;93640.00;;;;7390803;19;20149;-75
2023/12/09 07:53:21;;;;;;;17.90;7.73;;;;;2.80;93637.00;;;;7386934;19;20199;-75
2023/12/09 07:55:55;;;;;;;19.50;7.33;;;;;2.90;93640.00;;;;7385627;19;20176;-76
2023/12/09 07:58:24;;;;;;;20.07;8.77;;;;;3.00;93642.00;;;;7385558;19;20685;-75
2023/12/09 08:00:52;;;;;;;21.53;8.43;;;;;3.10;93638.00;;;;7388900;19;20153;-75
2023/12/09 08:03:42;;;;;;;22.23;8.90;;;;;3.20;93631.00;;;;7388976;19;20161;-76
2023/12/09 08:06:17;;;;;;;21.33;8.60;;;;;3.20;93633.00;;;;7389147;19;20155;-75
2023/12/09 08:08:52;;;;;;;15.13;7.70;;;;;3.30;93633.00;;;;7389321;19;20144;-75
2023/12/09 08:11:26;;;;;;;24.10;8.37;;;;;3.30;93635.00;;;;7388460;19;20155;-75
2023/12/09 08:14:00;;;;;;;19.60;9.13;;;;;3.30;93641.00;;;;7388724;19;20186;-75
2023/12/09 08:16:28;;;;;;;26.47;9.10;;;;;3.40;93637.00;;;;7388882;19;20166;-75
2023/12/09 08:19:02;;;;;;;18.70;8.70;;;;;3.50;93624.00;;;;7389892;19;20481;-74
2023/12/09 08:21:37;;;;;;;23.63;9.37;;;;;3.70;93622.00;;;;7387643;19;20136;-75
2023/12/09 08:24:14;;;;;;;13.63;8.27;;;;;3.50;93612.00;;;;7388768;19;20177;-75
2023/12/09 08:26:42;;;;;;;17.87;8.57;;;;;3.60;93616.00;;;;7388397;19;20151;-74
2023/12/09 08:29:25;;;;;;;17.67;8.30;;;;;3.60;93623.00;;;;7387547;19;20148;-74
2023/12/09 08:32:03;;;;;;;15.37;8.10;;;;;3.60;93620.00;;;;7387549;19;20128;-77
2023/12/09 08:34:42;;;;;;;16.73;8.07;;;;;3.60;93610.00;;;;7385353;19;20527;-77
2023/12/09 08:37:25;;;;;;;15.30;6.93;;;;;3.90;93616.00;;;;7383449;19;20152;-77
2023/12/09 08:40:10;;;;;;;14.03;7.13;;;;;3.80;93615.00;;;;7383500;19;20144;-77
2023/12/09 08:42:39;;;;;;;15.27;7.10;;;;;3.90;93601.00;;;;7381307;19;20592;-77
2023/12/09 08:45:18;;;;;;;14.13;6.83;;;;;3.90;93611.00;;;;7383212;19;20139;-77
2023/12/09 08:47:59;;;;;;;16.83;6.47;;;;;3.90;93596.00;;;;7384068;19;20152;-78
2023/12/09 08:50:33;;;;;;;14.60;6.43;;;;;4.10;93610.00;;;;7384321;19;20161;-77
2023/12/09 08:53:04;;;;;;;13.50;6.83;;;;;4.30;93602.00;;;;7383346;19;20133;-76
2023/12/09 08:55:38;;;;;;;16.03;6.80;;;;;4.40;93603.00;;;;7383322;19;20160;-76
2023/12/09 08:58:12;;;;;;;13.23;6.93;;;;;4.40;93588.00;;;;7384147;19;20133;-77
2023/12/09 09:00:46;;;;;;;18.47;7.03;;;;;4.50;93592.00;;;;7381053;19;20136;-76
2023/12/09 09:03:23;;;;;;;15.10;7.80;;;;;4.60;93587.00;;;;7384260;19;20224;-78
2023/12/09 09:05:58;;;;;;;11.40;6.43;;;;;4.50;93573.00;;;;7385521;19;20140;-74
2023/12/09 09:08:32;;;;;;;10.73;6.27;;;;;4.60;93574.00;;;;7384153;19;20165;-75
2023/12/09 09:11:06;;;;;;;8.83;5.77;;;;;4.80;93576.00;;;;7384908;19;20645;-73
2023/12/09 09:13:40;;;;;;;12.13;6.03;;;;;4.60;93580.00;;;;7384831;19;20168;-74
2023/12/09 09:16:15;;;;;;;10.57;6.60;;;;;4.60;93580.00;;;;7384913;19;20152;-75
2023/12/09 09:18:42;;;;;;;11.60;5.83;;;;;4.80;93582.00;;;;7386044;19;20150;-76
2023/12/09 09:21:17;;;;;;;10.03;6.10;;;;;4.80;93584.00;;;;7385904;19;20152;-76
2023/12/09 09:23:51;;;;;;;10.67;5.80;;;;;5.00;93575.00;;;;7384327;19;20148;-77
2023/12/09 09:26:25;;;;;;;14.00;6.23;;;;;5.00;93566.00;;;;7384481;19;20204;-77
2023/12/09 09:29:07;;;;;;;17.37;5.77;;;;;4.70;93558.00;;;;7385220;19;20500;-77
2023/12/09 09:31:41;;;;;;;13.20;5.90;;;;;4.80;93554.00;;;;7386570;19;20546;-76
2023/12/09 09:34:16;;;;;;;10.47;6.50;;;;;4.80;93550.00;;;;7386643;19;20204;-77
2023/12/09 09:36:45;;;;;;;12.13;6.60;;;;;4.80;93544.00;;;;7386462;19;20146;-76
2023/12/09 09:39:19;;;;;;;9.93;7.00;;;;;4.70;93548.00;;;;7381175;19;20148;-76
2023/12/09 09:42:27;;;;;;;12.43;7.10;;;;;4.70;93551.00;;;;7383248;19;20162;-75
2023/12/09 09:45:10;;;;;;;10.80;6.90;;;;;4.70;93549.00;;;;7383179;19;20125;-77
2023/12/09 09:47:40;;;;;;;18.10;9.53;;;;;4.60;93546.00;;;;7385655;19;20238;-77
2023/12/09 09:50:21;;;;;;;14.13;7.73;;;;;4.80;93540.00;;;;7384556;19;20481;-77
2023/12/09 09:52:51;;;;;;;10.07;8.07;;;;;4.90;93528.00;;;;7385575;19;20199;-77
2023/12/09 09:55:28;;;;;;;8.70;6.00;;;;;5.00;93522.00;;;;7383736;19;20173;-77
2023/12/09 09:58:02;;;;;;;9.30;6.63;;;;;5.10;93519.00;;;;7383803;19;20177;-78
2023/12/09 10:00:36;;;;;;;9.53;5.73;;;;;5.00;93520.00;;;;7383789;19;20219;-76
2023/12/09 10:03:15;;;;;;;13.10;7.53;;;;;5.00;93520.00;;;;7385265;19;20583;-76
2023/12/09 10:05:50;;;;;;;9.77;6.60;;;;;5.00;93521.00;;;;7385642;19;20148;-76
2023/12/09 10:08:18;;;;;;;8.23;4.83;;;;;5.00;93508.00;;;;7390813;19;20502;-78
2023/12/09 10:10:57;;;;;;;7.53;5.00;;;;;5.00;93499.00;;;;7391332;19;20132;-77
2023/12/09 10:13:31;;;;;;;7.80;4.63;;;;;5.00;93477.00;;;;7391061;19;20665;-79
2023/12/09 10:16:06;;;;;;;6.40;4.43;;;;;4.80;93458.00;;;;7391536;19;20508;-77
2023/12/09 10:18:35;;;;;;;8.80;4.97;;;;;4.80;93465.00;;;;7390471;19;20152;-76
2023/12/09 10:21:09;;;;;;;8.40;4.27;;;;;4.90;93463.00;;;;7390480;19;20152;-78
2023/12/09 10:23:37;;;;;;;5.93;4.03;;;;;5.10;93463.00;;;;7391013;19;20147;-77
2023/12/09 10:26:17;;;;;;;6.60;4.17;;;;;5.20;93453.00;;;;7390737;19;20148;-76
2023/12/09 10:28:45;;;;;;;8.13;3.23;;;;;4.90;93454.00;;;;7390640;19;20144;-78
2023/12/09 10:31:30;;;;;;;5.00;3.27;;;;;5.10;93446.00;;;;7390698;19;20176;-76
2023/12/09 10:33:57;;;;;;;6.17;3.20;;;;;5.00;93436.00;;;;7388613;19;20264;-76
2023/12/09 10:36:32;;;;;;;6.73;3.20;;;;;4.90;93434.00;;;;7387296;19;20152;-77
2023/12/09 10:39:08;;;;;;;5.50;3.37;;;;;4.90;93433.00;;;;7391317;19;20132;-77
2023/12/09 10:41:45;;;;;;;5.13;3.20;;;;;5.00;93433.00;;;;7391329;19;20595;-76
2023/12/09 10:44:13;;;;;;;4.60;2.57;;;;;5.00;93425.00;;;;7389646;19;20615;-76
2023/12/09 10:46:43;;;;;;;4.60;2.50;;;;;5.10;93418.00;;;;7388808;19;20508;-75
2023/12/09 10:49:18;;;;;;;5.60;2.43;;;;;5.30;93430.00;;;;7390628;19;20600;-75
2023/12/09 10:51:46;;;;;;;5.03;2.17;;;;;5.40;93426.00;;;;7389351;19;20133;-77
2023/12/09 10:54:20;;;;;;;3.57;2.00;;;;;5.40;93416.00;;;;7389110;19;20132;-78
2023/12/09 10:56:49;;;;;;;4.30;2.10;;;;;5.40;93418.00;;;;7389221;19;20173;-75
2023/12/09 10:59:32;;;;;;;2.40;1.80;;;;;5.60;93419.00;;;;7389433;19;20152;-76
2023/12/09 11:02:08;;;;;;;3.43;1.60;;;;;5.70;93399.00;;;;7390008;19;20150;-75
2023/12/09 11:04:42;;;;;;;2.33;1.50;;;;;5.50;93395.00;;;;7389110;19;20612;-76
2023/12/09 11:07:17;;;;;;;2.20;1.10;;;;;5.30;93374.00;;;;7390273;19;20132;-76
2023/12/09 11:09:45;;;;;;;1.30;1.20;;;;;5.20;93366.00;;;;7391016;19;20135;-75
2023/12/09 11:12:32;;;;;;;2.07;1.40;;;;;4.90;93366.00;;;;7391390;19;20133;-77
2023/12/09 11:15:16;;;;;;;4.13;1.60;;;;;5.00;93338.00;;;;7389640;19;20494;-75
2023/12/09 11:17:49;;;;;;;2.67;1.40;;;;;4.90;93332.00;;;;7388870;19;20224;-75
2023/12/09 11:20:29;;;;;;;4.07;1.30;;;;;4.90;93336.00;;;;7390276;19;20488;-75
2023/12/09 11:23:04;;;;;;;6.13;1.77;;;;;4.90;93326.00;;;;7388325;19;20149;-75
2023/12/09 11:25:44;;;;;;;5.53;1.60;;;;;5.00;93320.00;;;;7388823;19;20129;-75
2023/12/09 11:28:20;;;;;;;3.87;1.40;;;;;4.80;93308.00;;;;7390420;19;20149;-75
2023/12/09 11:31:03;;;;;;;4.33;1.70;;;;;5.00;93301.00;;;;7387074;19;20648;-76
2023/12/09 11:33:44;;;;;;;4.60;1.80;;;;;5.00;93287.00;;;;7388853;19;21694;-76
2023/12/09 11:36:12;;;;;;;4.97;2.07;;;;;5.00;93282.00;;;;7387936;19;20602;-75
2023/12/09 11:38:48;;;;;;;2.70;2.00;;;;;5.20;93286.00;;;;7386408;19;20149;-77
2023/12/09 11:41:15;;;;;;;4.70;2.20;;;;;5.10;93286.00;;;;7389376;19;20524;-76
2023/12/09 11:43:50;;;;;;;2.97;2.20;;;;;5.30;93266.00;;;;7386845;19;20200;-76
2023/12/09 11:46:19;;;;;;;3.47;1.90;;;;;5.10;93266.00;;;;7387789;19;20129;-78
2023/12/09 11:48:54;;;;;;;5.90;2.30;;;;;5.20;93265.00;;;;7387642;19;20184;-76
2023/12/09 11:51:29;;;;;;;4.60;1.87;;;;;5.00;93263.00;;;;7386224;19;20141;-76
2023/12/09 11:54:01;;;;;;;5.67;2.30;;;;;5.00;93258.00;;;;7386192;19;20129;-77
2023/12/09 11:56:37;;;;;;;6.17;2.53;;;;;4.90;93242.00;;;;7385393;19;20191;-77
2023/12/09 11:59:05;;;;;;;4.93;2.43;;;;;5.00;93243.00;;;;7383329;19;20133;-77
2023/12/09 12:01:41;;;;;;;3.43;2.40;;;;;5.10;93229.00;;;;7381434;19;20153;-74
2023/12/09 12:04:08;;;;;;;3.70;2.30;;;;;5.20;93208.00;;;;7384921;19;20497;-73
2023/12/09 12:06:48;;;;;;;5.23;2.30;;;;;5.30;93208.00;;;;7386026;19;20124;-73
2023/12/09 12:09:22;;;;;;;2.80;2.17;;;;;5.30;93210.00;;;;7383737;19;20129;-76
2023/12/09 12:12:00;;;;;;;5.00;3.20;;;;;5.30;93215.00;;;;7387530;19;20468;-75
2023/12/09 12:14:27;;;;;;;3.53;2.50;;;;;5.30;93206.00;;;;7388848;19;20651;-75
2023/12/09 12:17:01;;;;;;;5.30;3.43;;;;;5.30;93194.00;;;;7388085;19;20152;-74
2023/12/09 12:19:30;;;;;;;5.37;3.00;;;;;5.20;93198.00;;;;7386858;19;20148;-75
2023/12/09 12:22:05;;;;;;;5.63;3.00;;;;;5.60;93201.00;;;;7388844;19;20188;-74
2023/12/09 12:24:46;;;;;;;6.40;3.43;;;;;5.50;93196.00;;;;7387537;19;20691;-75
2023/12/09 12:27:13;;;;;;;4.77;2.90;;;;;5.30;93184.00;;;;7387974;19;20184;-76
2023/12/09 12:29:56;;;;;;;5.33;2.70;;;;;5.40;93173.00;;;;7386896;19;20172;-75
2023/12/09 12:32:38;;;;;;;5.63;3.50;;;;;5.30;93165.00;;;;7384079;19;20159;-77
2023/12/09 12:35:12;;;;;;;3.80;2.87;;;;;5.30;93151.00;;;;7387145;19;20139;-75
2023/12/09 12:37:47;;;;;;;5.63;2.87;;;;;5.10;93144.00;;;;7386963;19;20612;-75
2023/12/09 12:40:22;;;;;;;3.70;2.63;;;;;5.00;93153.00;;;;7387020;19;20140;-76
2023/12/09 12:42:53;;;;;;;3.60;3.00;;;;;4.80;93160.00;;;;7384214;19;20593;-74
2023/12/09 12:45:27;;;;;;;3.83;3.00;;;;;4.70;93156.00;;;;7383827;19;20216;-77
2023/12/09 12:47:55;;;;;;;4.87;3.50;;;;;4.70;93155.00;;;;7386082;19;20144;-75
2023/12/09 12:50:29;;;;;;;5.90;3.13;;;;;5.00;93134.00;;;;7385926;19;20625;-76
2023/12/09 12:53:11;;;;;;;4.87;3.37;;;;;4.70;93144.00;;;;7386208;19;20200;-74
2023/12/09 12:55:45;;;;;;;4.97;3.37;;;;;4.60;93154.00;;;;7385049;19;20149;-75